Time,TemperatureF,DewpointF,PressureIn,WindDirection,WindDirectionDegrees,WindSpeedMPH,WindSpeedGustMPH,Humidity,HourlyPrecipIn,Conditions,Clouds,dailyrainin,SoftwareType,DateUTC
2013-02-28 10:32:00,54.0,36.0,-100.00,WNW,301,9.0,14.0,50,-99.99,,,-99.99,,2013-02-28 15:32:00,
2013-02-28 10:42:00,54.0,36.0,-100.00,WNW,301,9.0,14.0,50,-99.99,,,-99.99,,2013-02-28 15:42:00,
2013-02-28 10:52:00,54.0,36.0,-100.00,WNW,301,9.0,14.0,50,-99.99,,,-99.99,,2013-02-28 15:52:00,
2013-02-28 11:02:00,54.0,36.0,-100.00,WNW,301,9.0,14.0,50,-99.99,,,-99.99,,2013-02-28 16:02:00,
2013-02-28 11:32:00,55.0,33.0,-100.00,WNW,297,8.0,15.0,44,0.00,,,-99.99,,2013-02-28 16:32:00,
2013-02-28 11:43:00,55.0,33.0,-100.00,WNW,297,8.0,15.0,44,0.00,,,-99.99,,2013-02-28 16:43:00,
2013-02-28 11:53:00,55.0,33.0,-100.00,WNW,297,8.0,15.0,44,0.00,,,-99.99,,2013-02-28 16:53:00,
2013-02-28 12:02:00,55.0,33.0,-100.00,WNW,297,8.0,15.0,44,0.00,,,-99.99,,2013-02-28 17:02:00,
2013-02-28 12:32:00,54.0,33.0,-100.00,West,278,7.0,14.0,45,0.00,,,-99.99,,2013-02-28 17:32:00,
2013-02-28 12:42:00,54.0,33.0,-100.00,West,278,7.0,14.0,45,0.00,,,-99.99,,2013-02-28 17:42:00,
2013-02-28 12:53:00,54.0,33.0,-100.00,West,278,7.0,14.0,45,0.00,,,-99.99,,2013-02-28 17:53:00,
2013-02-28 13:02:00,54.0,33.0,-100.00,West,278,7.0,14.0,45,0.00,,,-99.99,,2013-02-28 18:02:00,
2013-02-28 13:32:00,54.0,35.0,-100.00,West,261,8.0,16.0,48,0.00,,,-99.99,,2013-02-28 18:32:00,
2013-02-28 13:42:00,54.0,35.0,-100.00,West,261,8.0,16.0,48,0.00,,,-99.99,,2013-02-28 18:42:00,
2013-02-28 13:52:00,54.0,35.0,-100.00,West,261,8.0,16.0,48,0.00,,,-99.99,,2013-02-28 18:52:00,
2013-02-28 14:02:00,54.0,35.0,-100.00,West,261,8.0,16.0,48,0.00,,,-99.99,,2013-02-28 19:02:00,
2013-02-28 14:32:00,52.0,33.0,-100.00,NW,321,11.0,19.0,49,0.00,,,-99.99,,2013-02-28 19:32:00,
2013-02-28 14:42:00,52.0,33.0,-100.00,NW,321,11.0,19.0,49,0.00,,,-99.99,,2013-02-28 19:42:00,
2013-02-28 14:52:00,52.0,33.0,-100.00,NW,321,11.0,19.0,49,0.00,,,-99.99,,2013-02-28 19:52:00,
2013-02-28 15:01:00,52.0,33.0,-100.00,NW,321,11.0,19.0,49,0.00,,,-99.99,,2013-02-28 20:01:00,
2013-02-28 15:32:00,52.0,34.0,-100.00,NW,324,9.0,18.0,51,0.00,,,-99.99,,2013-02-28 20:32:00,
2013-02-28 15:42:00,52.0,34.0,-100.00,NW,324,9.0,18.0,51,0.00,,,-99.99,,2013-02-28 20:42:00,
2013-02-28 15:52:00,52.0,34.0,-100.00,NW,324,9.0,18.0,51,0.00,,,-99.99,,2013-02-28 20:52:00,
2013-02-28 16:02:00,52.0,34.0,-100.00,NW,324,9.0,18.0,51,0.00,,,-99.99,,2013-02-28 21:02:00,
2013-02-28 16:32:00,51.0,31.0,-100.00,NW,311,9.0,17.0,47,0.00,,,-99.99,,2013-02-28 21:32:00,
2013-02-28 16:42:00,51.0,31.0,-100.00,NW,311,9.0,17.0,47,0.00,,,-99.99,,2013-02-28 21:42:00,
2013-02-28 16:52:00,51.0,31.0,-100.00,NW,311,9.0,17.0,47,0.00,,,-99.99,,2013-02-28 21:52:00,
2013-02-28 17:02:00,51.0,31.0,-100.00,NW,311,9.0,17.0,47,0.00,,,-99.99,,2013-02-28 22:02:00,
2013-02-28 17:32:00,50.0,31.0,-100.00,WNW,300,9.0,17.0,47,0.00,,,-99.99,,2013-02-28 22:32:00,
2013-02-28 17:42:00,50.0,31.0,-100.00,WNW,300,9.0,17.0,47,0.00,,,-99.99,,2013-02-28 22:42:00,
2013-02-28 17:52:00,50.0,31.0,-100.00,WNW,300,9.0,17.0,47,0.00,,,-99.99,,2013-02-28 22:52:00,
2013-02-28 18:02:00,50.0,31.0,-100.00,WNW,300,9.0,17.0,47,0.00,,,-99.99,,2013-02-28 23:02:00,
2013-02-28 18:32:00,49.0,32.0,-100.00,WNW,293,7.0,17.0,51,0.00,,,-99.99,,2013-02-28 23:32:00,
2013-02-28 18:42:00,49.0,32.0,-100.00,WNW,293,7.0,17.0,51,0.00,,,-99.99,,2013-02-28 23:42:00,
2013-02-28 18:53:00,49.0,32.0,-100.00,WNW,293,7.0,17.0,51,0.00,,,-99.99,,2013-02-28 23:53:00,
2013-02-28 19:02:00,49.0,32.0,-100.00,WNW,293,7.0,17.0,51,0.00,,,-99.99,,2013-03-01 00:02:00,
2013-02-28 19:32:00,46.0,32.0,-100.00,WNW,291,4.0,11.0,58,0.00,,,-99.99,,2013-03-01 00:32:00,
2013-02-28 19:42:00,46.0,32.0,-100.00,WNW,291,4.0,11.0,58,0.00,,,-99.99,,2013-03-01 00:42:00,
2013-02-28 19:52:00,46.0,32.0,-100.00,WNW,291,4.0,11.0,58,0.00,,,-99.99,,2013-03-01 00:52:00,
2013-02-28 20:01:00,46.0,32.0,-100.00,WNW,291,4.0,11.0,58,0.00,,,-99.99,,2013-03-01 01:01:00,
2013-02-28 20:32:00,44.0,32.0,-100.00,West,260,3.0,5.0,63,0.00,,,-99.99,,2013-03-01 01:32:00,
2013-02-28 20:42:00,44.0,32.0,-100.00,West,260,3.0,5.0,63,0.00,,,-99.99,,2013-03-01 01:42:00,
2013-02-28 20:52:00,44.0,32.0,-100.00,West,260,3.0,5.0,63,0.00,,,-99.99,,2013-03-01 01:52:00,
2013-02-28 21:01:00,44.0,32.0,-100.00,West,260,3.0,5.0,63,0.00,,,-99.99,,2013-03-01 02:01:00,
2013-02-28 21:32:00,40.0,31.0,-100.00,West,264,2.0,4.0,71,0.00,,,-99.99,,2013-03-01 02:32:00,
2013-02-28 21:42:00,40.0,31.0,-100.00,West,264,2.0,4.0,71,0.00,,,-99.99,,2013-03-01 02:42:00,
2013-02-28 21:52:00,40.0,31.0,-100.00,West,264,2.0,4.0,71,0.00,,,-99.99,,2013-03-01 02:52:00,
2013-02-28 22:02:00,40.0,31.0,-100.00,West,264,2.0,4.0,71,0.00,,,-99.99,,2013-03-01 03:02:00,
2013-02-28 22:32:00,39.0,32.0,-100.00,West,266,4.0,11.0,76,0.00,,,-99.99,,2013-03-01 03:32:00,
2013-02-28 22:42:00,39.0,32.0,-100.00,West,266,4.0,11.0,76,0.00,,,-99.99,,2013-03-01 03:42:00,
2013-02-28 22:52:00,39.0,32.0,-100.00,West,266,4.0,11.0,76,0.00,,,-99.99,,2013-03-01 03:52:00,
2013-02-28 23:01:00,39.0,32.0,-100.00,West,266,4.0,11.0,76,0.00,,,-99.99,,2013-03-01 04:01:00,
2013-02-28 23:42:00,38.0,30.0,-100.00,WSW,247,3.0,5.0,72,0.00,,,-99.99,,2013-03-01 04:42:00,
2013-02-28 23:52:00,38.0,30.0,-100.00,WSW,247,3.0,5.0,72,0.00,,,-99.99,,2013-03-01 04:52:00,